Time;durP1;ratioP1;P1;durP2;ratioP2;P2;SDS_P1;SDS_P2;PMS_P1;PMS_P2;Temp;Humidity;BMP_temperature;BMP_pressure;BME280_temperature;BME280_humidity;BME280_pressure;Samples;Min_cycle;Max_cycle;Signal;HPM_P1;HPM_P2
2023/04/07 00:00:24;;;;;;;12.87;9.00;;;;;;;8.04;44.92;94327.53;5029831;28;20249;-52
2023/04/07 00:02:51;;;;;;;11.67;7.70;;;;;;;8.04;44.87;94329.28;5042456;28;20198;-51
2023/04/07 00:05:18;;;;;;;14.53;9.17;;;;;;;8.01;44.96;94324.44;5043741;28;20196;-52
2023/04/07 00:07:45;;;;;;;13.97;8.53;;;;;;;7.99;44.85;94316.13;5037405;28;20183;-53
2023/04/07 00:10:12;;;;;;;12.73;8.10;;;;;;;7.99;44.98;94326.31;5049837;28;20233;-50
2023/04/07 00:12:38;;;;;;;12.97;8.43;;;;;;;7.98;45.00;94317.06;5049419;28;20712;-52
2023/04/07 00:15:06;;;;;;;9.60;8.00;;;;;;;7.98;44.95;94322.94;5036866;28;20188;-51
2023/04/07 00:17:34;;;;;;;13.93;8.30;;;;;;;7.96;44.93;94311.31;5029461;28;20195;-53
2023/04/07 00:20:01;;;;;;;13.23;8.27;;;;;;;7.96;45.09;94318.94;5029526;28;20262;-53
2023/04/07 00:22:28;;;;;;;10.77;8.27;;;;;;;7.91;45.06;94315.97;5029438;28;20199;-51
2023/04/07 00:24:55;;;;;;;9.13;7.30;;;;;;;7.93;45.07;94316.63;5029238;28;20662;-52
2023/04/07 00:27:22;;;;;;;12.27;7.90;;;;;;;7.93;45.07;94316.63;5041402;28;20195;-53
2023/04/07 00:29:48;;;;;;;12.23;8.23;;;;;;;7.90;45.08;94311.81;5048417;28;20665;-53
2023/04/07 00:32:16;;;;;;;9.57;7.57;;;;;;;7.71;45.13;94279.47;5048959;28;20195;-51
2023/04/07 00:34:44;;;;;;;10.17;8.17;;;;;;;7.91;45.07;94313.44;5048952;28;20191;-50
2023/04/07 00:37:11;;;;;;;11.97;7.83;;;;;;;7.87;45.15;94309.53;5049524;28;20190;-53
2023/04/07 00:39:37;;;;;;;10.57;8.03;;;;;;;7.89;45.12;94315.28;5047194;28;20203;-49
2023/04/07 00:42:05;;;;;;;10.17;6.90;;;;;;;7.85;45.17;94314.75;5049138;28;20205;-51
2023/04/07 00:44:32;;;;;;;12.40;7.67;;;;;;;7.87;45.23;94317.19;5035894;28;20546;-50
2023/04/07 00:46:59;;;;;;;9.53;7.70;;;;;;;7.86;45.27;94318.09;5031844;28;20191;-53
2023/04/07 00:49:27;;;;;;;12.43;7.90;;;;;;;7.79;45.29;94312.72;5037547;28;20202;-52
2023/04/07 00:51:55;;;;;;;10.40;7.53;;;;;;;7.86;45.19;94320.63;5029125;28;20234;-52
2023/04/07 00:54:23;;;;;;;12.23;8.27;;;;;;;7.84;45.13;94317.44;5028993;28;20235;-53
2023/04/07 00:56:50;;;;;;;9.70;7.80;;;;;;;7.78;45.01;94303.50;5029046;28;20191;-51
2023/04/07 00:59:17;;;;;;;9.33;6.87;;;;;;;7.83;45.29;94315.81;5029080;28;20192;-49
2023/04/07 01:01:48;;;;;;;11.87;6.83;;;;;;;7.79;45.33;94318.63;5028909;28;20885;-53
2023/04/07 01:04:23;;;;;;;11.33;7.57;;;;;;;7.81;45.33;94318.47;5028858;28;20202;-52
2023/04/07 01:06:54;;;;;;;9.40;6.70;;;;;;;7.80;45.44;94310.03;5029105;28;20282;-52
2023/04/07 01:09:27;;;;;;;9.43;7.23;;;;;;;7.69;45.38;94296.63;5045085;28;20215;-53
2023/04/07 01:12:02;;;;;;;7.93;7.00;;;;;;;7.78;45.38;94303.50;5048840;28;20712;-53
2023/04/07 01:14:35;;;;;;;9.67;6.40;;;;;;;7.75;45.43;94299.44;5047884;28;20597;-51
2023/04/07 01:17:06;;;;;;;8.60;7.00;;;;;;;7.78;45.36;94306.03;5048893;28;20294;-51
2023/04/07 01:19:37;;;;;;;9.23;7.60;;;;;;;7.59;45.49;94272.88;5048446;28;20195;-51
2023/04/07 01:22:11;;;;;;;9.83;7.07;;;;;;;7.78;45.38;94306.03;5048892;28;20681;-52
2023/04/07 01:25:03;;;;;;;8.13;6.83;;;;;;;7.66;45.44;94287.50;5048349;28;20233;-52
2023/04/07 01:27:38;;;;;;;9.50;6.63;;;;;;;7.78;45.42;94301.75;5039461;28;20729;-52
2023/04/07 01:30:12;;;;;;;10.30;7.27;;;;;;;7.77;45.39;94296.78;5028612;28;20596;-53
2023/04/07 01:32:41;;;;;;;7.50;6.30;;;;;;;7.80;45.54;94296.50;5027335;28;20196;-53
2023/04/07 01:35:13;;;;;;;6.90;6.20;;;;;;;7.81;45.46;94295.56;5028498;28;20204;-52
2023/04/07 01:37:41;;;;;;;13.43;7.67;;;;;;;7.78;45.36;94290.75;5028952;28;20200;-52
2023/04/07 01:40:09;;;;;;;7.87;6.33;;;;;;;7.84;45.29;94302.16;5028607;28;20203;-51
2023/04/07 01:42:39;;;;;;;8.37;6.90;;;;;;;7.86;45.50;94297.72;5041163;28;20191;-49
2023/04/07 01:45:09;;;;;;;8.07;6.93;;;;;;;7.69;45.48;94271.19;5051973;28;20627;-51
2023/04/07 01:47:37;;;;;;;8.80;6.97;;;;;;;7.85;45.38;94291.03;5035901;28;20184;-52
2023/04/07 01:50:08;;;;;;;8.97;6.60;;;;;;;7.76;45.37;94273.06;5031876;28;20191;-52
2023/04/07 01:52:35;;;;;;;8.80;6.47;;;;;;;7.94;45.19;94298.69;5032011;28;20281;-51
2023/04/07 01:55:03;;;;;;;7.70;6.33;;;;;;;7.95;45.25;94290.13;5030511;28;20192;-51
2023/04/07 01:57:30;;;;;;;9.90;6.57;;;;;;;7.96;45.27;94290.94;5031821;28;20197;-51
2023/04/07 01:59:56;;;;;;;10.53;6.13;;;;;;;7.96;45.17;94289.19;5031747;28;20616;-51
2023/04/07 02:02:25;;;;;;;13.03;7.20;;;;;;;7.97;45.08;94282.34;5032215;28;20203;-51
2023/04/07 02:04:55;;;;;;;8.10;5.80;;;;;;;7.99;45.03;94285.59;5032278;28;20218;-52
2023/04/07 02:07:29;;;;;;;9.00;6.27;;;;;;;8.01;45.06;94281.16;5051743;28;20209;-52
2023/04/07 02:09:59;;;;;;;6.50;5.70;;;;;;;7.97;45.10;94269.63;5051243;28;20226;-52
2023/04/07 02:12:28;;;;;;;8.30;5.80;;;;;;;8.04;44.90;94281.69;5051038;28;20226;-52
2023/04/07 02:14:56;;;;;;;8.30;6.40;;;;;;;8.07;44.98;94282.34;5051655;28;20195;-58
2023/04/07 02:17:26;;;;;;;8.23;6.10;;;;;;;7.99;44.90;94271.09;5051793;28;20285;-51
2023/04/07 02:19:56;;;;;;;7.07;6.03;;;;;;;8.10;44.70;94282.09;5046645;28;20195;-51
2023/04/07 02:22:22;;;;;;;7.37;5.93;;;;;;;8.12;44.66;94277.66;5051569;28;20673;-51
2023/04/07 02:24:49;;;;;;;7.07;6.03;;;;;;;8.14;44.78;94281.69;5051535;28;20206;-53
2023/04/07 02:27:17;;;;;;;7.20;5.67;;;;;;;8.17;44.61;94289.09;5051199;28;20660;-52
2023/04/07 02:29:44;;;;;;;8.60;5.93;;;;;;;8.18;44.60;94283.03;5051495;28;20585;-52
2023/04/07 02:32:11;;;;;;;10.87;5.80;;;;;;;8.22;44.52;94283.59;5050926;28;20226;-52
2023/04/07 02:34:39;;;;;;;6.43;5.73;;;;;;;8.20;44.41;94278.63;5051493;28;20191;-51
2023/04/07 02:37:06;;;;;;;7.80;5.47;;;;;;;8.26;44.33;94290.03;5050940;28;20694;-50
2023/04/07 02:39:32;;;;;;;8.90;5.33;;;;;;;8.27;44.35;94292.44;5051317;28;20583;-51
2023/04/07 02:41:59;;;;;;;8.27;5.97;;;;;;;8.09;44.16;94255.84;5031363;28;20199;-52
2023/04/07 02:44:26;;;;;;;8.37;5.87;;;;;;;8.35;44.38;94290.97;5033798;28;20707;-52
2023/04/07 02:46:53;;;;;;;5.73;5.23;;;;;;;8.37;44.31;94286.56;5051161;28;20183;-53
2023/04/07 02:49:20;;;;;;;8.30;5.30;;;;;;;8.40;44.42;94286.28;5051078;28;20191;-52
2023/04/07 02:51:48;;;;;;;6.13;5.17;;;;;;;8.42;44.13;94295.44;5050485;28;20215;-51
2023/04/07 02:54:15;;;;;;;5.70;5.10;;;;;;;8.45;44.00;94296.88;5050277;28;20183;-52
2023/04/07 02:56:41;;;;;;;8.13;5.60;;;;;;;8.47;44.06;94295.03;5049643;28;20537;-52
2023/04/07 02:59:08;;;;;;;7.97;5.60;;;;;;;8.47;44.07;94295.03;5050980;28;20186;-51
2023/04/07 03:01:35;;;;;;;8.27;5.40;;;;;;;8.48;43.97;94296.63;5050442;28;20274;-51
2023/04/07 03:04:02;;;;;;;6.00;5.40;;;;;;;8.52;43.93;94295.41;5050793;28;20276;-53
2023/04/07 03:06:29;;;;;;;6.33;5.17;;;;;;;8.54;43.97;94301.16;5048978;28;20244;-51
2023/04/07 03:08:57;;;;;;;6.33;5.23;;;;;;;8.56;44.08;94299.31;5050010;28;20605;-52
2023/04/07 03:11:24;;;;;;;7.10;5.50;;;;;;;8.58;43.89;94302.50;5050413;28;20233;-54
2023/04/07 03:13:50;;;;;;;6.30;5.07;;;;;;;8.59;43.78;94299.00;5050170;28;20227;-52
2023/04/07 03:16:17;;;;;;;8.43;6.10;;;;;;;8.59;43.70;94295.66;5048987;28;20195;-52
2023/04/07 03:18:44;;;;;;;6.37;5.27;;;;;;;8.63;43.69;94309.75;5049900;28;20194;-51
2023/04/07 03:21:11;;;;;;;8.27;4.93;;;;;;;8.65;43.68;94300.25;5050058;28;20190;-52
2023/04/07 03:23:37;;;;;;;9.83;5.60;;;;;;;8.66;43.59;94302.63;5049895;28;20557;-51
2023/04/07 03:26:06;;;;;;;6.37;5.77;;;;;;;8.67;43.69;94300.91;5050335;28;20269;-52
2023/04/07 03:28:32;;;;;;;6.97;5.50;;;;;;;8.64;43.63;94291.78;5048191;28;20187;-51
2023/04/07 03:30:59;;;;;;;8.13;5.30;;;;;;;8.66;43.63;94296.75;5050262;28;20230;-50
2023/04/07 03:33:26;;;;;;;7.13;5.50;;;;;;;8.60;43.76;94289.66;5050040;28;20186;-51
2023/04/07 03:35:53;;;;;;;8.27;5.40;;;;;;;8.60;43.74;94295.53;5049444;28;20720;-53
2023/04/07 03:38:20;;;;;;;6.93;5.80;;;;;;;8.56;43.66;94291.66;5039404;28;20275;-51
2023/04/07 03:40:47;;;;;;;6.47;5.53;;;;;;;8.54;43.74;94293.53;5037260;28;20187;-51
2023/04/07 03:43:15;;;;;;;8.00;5.87;;;;;;;8.52;43.71;94292.88;5050027;28;20869;-53
2023/04/07 03:45:42;;;;;;;6.57;5.60;;;;;;;8.46;43.68;94289.13;5049819;28;20219;-55
2023/04/07 03:48:10;;;;;;;9.77;6.27;;;;;;;8.49;43.83;94290.59;5049772;28;20187;-51
2023/04/07 03:50:37;;;;;;;7.13;6.03;;;;;;;8.46;44.05;94289.13;5044445;28;20664;-53
2023/04/07 03:53:04;;;;;;;9.23;5.37;;;;;;;8.48;43.75;94306.81;5029990;28;20211;-51
2023/04/07 03:55:31;;;;;;;8.37;5.23;;;;;;;8.41;43.74;94293.78;5029816;28;20198;-52
2023/04/07 03:57:58;;;;;;;5.77;5.17;;;;;;;8.46;43.78;94293.38;5029820;28;20207;-51
2023/04/07 04:00:27;;;;;;;8.00;6.53;;;;;;;8.43;43.63;94294.47;5029875;28;20257;-52
2023/04/07 04:02:54;;;;;;;7.27;6.23;;;;;;;8.48;43.66;94304.28;5047716;28;20191;-52
2023/04/07 04:05:20;;;;;;;7.43;5.73;;;;;;;8.43;43.66;94291.94;5049285;28;20694;-52
2023/04/07 04:07:47;;;;;;;7.30;5.40;;;;;;;8.48;43.69;94297.44;5050193;28;20179;-54
2023/04/07 04:10:15;;;;;;;7.17;5.60;;;;;;;8.49;43.77;94304.13;5049515;28;20187;-53
2023/04/07 04:12:41;;;;;;;7.80;5.50;;;;;;;8.51;43.70;94304.00;5047796;28;20211;-53
2023/04/07 04:15:09;;;;;;;6.10;5.37;;;;;;;8.54;43.65;94311.38;5050144;28;20268;-52
2023/04/07 04:17:38;;;;;;;10.27;6.33;;;;;;;8.57;43.55;94308.56;5049427;28;20194;-53
2023/04/07 04:20:06;;;;;;;8.40;6.70;;;;;;;8.57;43.56;94306.00;5047390;28;20343;-53
2023/04/07 04:22:32;;;;;;;6.53;5.80;;;;;;;8.61;43.53;94304.78;5033751;28;20288;-52
2023/04/07 04:25:00;;;;;;;6.60;5.90;;;;;;;8.66;43.53;94312.84;5042595;28;20186;-52
2023/04/07 04:27:27;;;;;;;6.47;5.53;;;;;;;8.70;43.47;94319.28;5046664;28;20190;-51
2023/04/07 04:29:54;;;;;;;9.33;6.10;;;;;;;8.74;43.44;94314.72;5039575;28;20192;-52
2023/04/07 04:32:21;;;;;;;6.90;6.07;;;;;;;8.78;43.56;94319.41;5029154;28;20234;-52
2023/04/07 04:34:49;;;;;;;8.90;6.23;;;;;;;8.84;43.50;94323.16;5030220;28;20195;-52
2023/04/07 04:37:16;;;;;;;10.17;5.20;;;;;;;8.88;43.46;94314.28;5029234;28;20293;-51
2023/04/07 04:39:43;;;;;;;8.80;5.90;;;;;;;8.93;43.34;94318.97;5029155;28;20645;-52
2023/04/07 04:42:10;;;;;;;8.03;5.60;;;;;;;8.97;43.32;94325.41;5028810;28;20188;-51
2023/04/07 04:44:36;;;;;;;7.27;5.83;;;;;;;9.04;43.19;94321.38;5029055;28;20647;-52
2023/04/07 04:47:06;;;;;;;8.90;6.53;;;;;;;9.09;43.09;94328.63;5047586;28;20186;-50
2023/04/07 04:49:34;;;;;;;7.47;6.13;;;;;;;9.18;43.02;94326.03;5046125;28;20194;-53
2023/04/07 04:52:04;;;;;;;8.77;5.97;;;;;;;9.28;42.91;94329.38;5049276;28;20210;-50
2023/04/07 04:54:32;;;;;;;8.00;6.13;;;;;;;9.38;42.85;94323.44;5049656;28;20207;-50
2023/04/07 04:57:01;;;;;;;7.10;5.47;;;;;;;9.42;42.43;94319.66;5048136;28;20198;-52
2023/04/07 04:59:28;;;;;;;6.70;5.87;;;;;;;9.59;42.67;94325.78;5049283;28;20626;-51
2023/04/07 05:01:55;;;;;;;10.33;5.03;;;;;;;10.26;75.78;94334.88;5049363;28;20194;-50
2023/04/07 05:04:23;;;;;;;6.47;4.43;;;;;;;11.16;76.43;94338.19;5042904;28;20203;-53
2023/04/07 05:06:51;;;;;;;10.80;4.40;;;;;;;11.84;70.60;94337.47;5027557;28;20258;-54
2023/04/07 05:09:20;;;;;;;6.33;4.90;;;;;;;12.12;65.43;94335.47;5028342;28;20227;-53
2023/04/07 05:11:47;;;;;;;8.80;3.50;;;;;;;12.37;69.12;94342.25;5011601;28;20255;-53
2023/04/07 05:14:15;;;;;;;7.37;3.93;;;;;;;13.20;71.65;94346.47;5029386;28;20191;-52
2023/04/07 05:16:42;;;;;;;16.37;3.97;;;;;;;14.16;69.09;94343.84;5029371;28;20613;-53
2023/04/07 05:19:10;;;;;;;7.93;3.80;;;;;;;15.06;66.14;94356.16;5031653;28;20278;-52
2023/04/07 05:21:38;;;;;;;9.37;3.63;;;;;;;15.82;62.90;94349.19;5048328;28;20191;-52
2023/04/07 05:24:06;;;;;;;8.43;4.20;;;;;;;16.36;60.25;94346.28;5047074;28;20604;-51
2023/04/07 05:26:35;;;;;;;8.60;4.03;;;;;;;16.58;58.23;94352.28;5039477;28;20196;-53
2023/04/07 05:29:02;;;;;;;7.70;4.00;;;;;;;16.59;56.58;94356.47;5042035;28;20582;-53
2023/04/07 05:31:29;;;;;;;6.13;4.10;;;;;;;16.55;55.08;94355.22;5045587;28;20195;-53
2023/04/07 05:33:59;;;;;;;11.30;4.20;;;;;;;16.49;54.22;94361.09;5039352;28;20616;-52
2023/04/07 05:36:26;;;;;;;7.37;4.90;;;;;;;16.41;53.00;94356.88;5047020;28;20195;-51
2023/04/07 05:38:53;;;;;;;5.97;4.40;;;;;;;16.32;52.17;94357.97;5043095;28;20359;-50
2023/04/07 05:41:20;;;;;;;10.57;4.70;;;;;;;16.22;51.46;94355.66;5038419;28;20658;-51
2023/04/07 05:43:48;;;;;;;5.03;4.53;;;;;;;16.12;50.51;94356.91;5042154;28;20199;-52
2023/04/07 05:46:15;;;;;;;8.50;4.70;;;;;;;16.03;49.67;94353.63;5040460;28;20577;-50
2023/04/07 05:48:42;;;;;;;4.43;4.03;;;;;;;15.92;49.16;94365.19;5040701;28;20582;-53
2023/04/07 05:51:09;;;;;;;8.50;4.40;;;;;;;15.68;48.44;94340.50;5036509;28;20200;-52
2023/04/07 05:53:36;;;;;;;9.00;4.63;;;;;;;15.56;47.44;94339.28;5040098;28;20634;-52
2023/04/07 05:56:05;;;;;;;4.63;4.07;;;;;;;15.45;46.76;94342.28;5039458;28;20677;-54
2023/04/07 05:58:32;;;;;;;5.80;4.63;;;;;;;15.47;46.42;94356.63;5041668;28;20199;-51
2023/04/07 06:01:01;;;;;;;5.00;4.37;;;;;;;15.45;45.86;94368.06;5040760;28;20273;-51
2023/04/07 06:03:28;;;;;;;8.07;3.93;;;;;;;15.48;45.46;94362.56;5041975;28;20213;-51
2023/04/07 06:05:57;;;;;;;7.70;4.23;;;;;;;15.68;44.81;94366.25;5038250;28;20270;-51
2023/04/07 06:08:24;;;;;;;10.93;4.50;;;;;;;15.89;44.58;94357.84;5037676;28;20281;-51
2023/04/07 06:10:51;;;;;;;4.40;4.00;;;;;;;16.14;44.14;94358.31;5039638;28;20179;-52
2023/04/07 06:13:18;;;;;;;8.77;4.93;;;;;;;16.34;43.61;94355.19;5047421;28;20225;-50
2023/04/07 06:15:46;;;;;;;7.90;4.33;;;;;;;16.56;43.47;94360.19;5039316;28;20196;-51
2023/04/07 06:18:16;;;;;;;6.07;4.70;;;;;;;16.79;42.74;94362.66;5041827;28;20202;-52
2023/04/07 06:20:43;;;;;;;4.80;4.33;;;;;;;17.15;42.40;94366.16;5037947;28;20198;-52
2023/04/07 06:23:10;;;;;;;6.73;4.23;;;;;;;17.68;41.75;94361.38;5046507;28;20210;-52
2023/04/07 06:25:42;;;;;;;4.40;3.97;;;;;;;18.20;41.22;94357.53;5033146;28;20268;-51
2023/04/07 06:28:09;;;;;;;5.20;3.73;;;;;;;18.56;40.90;94363.22;5039573;28;20209;-50
2023/04/07 06:30:37;;;;;;;3.93;3.53;;;;;;;18.93;40.57;94350.78;5044516;28;20740;-51
2023/04/07 06:33:06;;;;;;;5.33;3.93;;;;;;;19.34;40.13;94354.19;5046590;28;20309;-51
2023/04/07 06:35:39;;;;;;;4.63;3.60;;;;;;;19.76;39.71;94350.41;5037791;28;20205;-52
2023/04/07 06:38:07;;;;;;;4.37;3.80;;;;;;;20.40;39.13;94359.19;5034377;28;20671;-51
2023/04/07 06:40:34;;;;;;;4.40;3.33;;;;;;;21.15;38.99;94355.00;5042065;28;20698;-52
2023/04/07 06:43:02;;;;;;;7.20;3.60;;;;;;;22.09;38.83;94355.78;5040076;28;20688;-51
2023/04/07 06:45:29;;;;;;;7.75;3.95;;;;;;;22.85;38.29;94325.03;5038054;28;20283;-51
2023/04/07 06:47:56;;;;;;;3.10;2.67;;;;;;;23.99;37.87;94359.56;5042955;28;20203;-52
2023/04/07 06:50:23;;;;;;;3.58;3.17;;;;;;;23.86;36.79;94247.50;5040723;28;20196;-51
2023/04/07 06:52:51;;;;;;;4.15;3.30;;;;;;;25.12;36.06;94370.41;5039179;28;20215;-51
2023/04/07 06:55:18;;;;;;;6.45;3.60;;;;;;;25.54;35.32;94365.63;5042066;28;20202;-52
2023/04/07 06:57:45;;;;;;;3.75;3.00;;;;;;;25.89;35.33;94372.44;5038737;28;20223;-54
2023/04/07 07:00:12;;;;;;;5.60;3.00;;;;;;;26.19;34.80;94375.47;5038090;28;20221;-52
2023/04/07 07:02:39;;;;;;;5.80;3.13;;;;;;;26.46;34.52;94382.66;5035675;28;20275;-52
2023/04/07 07:05:07;;;;;;;6.30;2.92;;;;;;;26.75;33.80;94378.78;5038922;28;20183;-52
2023/04/07 07:07:34;;;;;;;3.20;2.50;;;;;;;27.21;33.67;94376.66;5041366;28;20231;-51
2023/04/07 07:10:02;;;;;;;3.08;2.88;;;;;;;27.72;33.31;94377.13;5041459;28;20736;-52
2023/04/07 07:12:29;;;;;;;3.33;2.70;;;;;;;28.20;32.94;94388.44;5035320;28;20223;-53
2023/04/07 07:14:55;;;;;;;4.15;2.50;;;;;;;28.52;32.48;94387.56;5041011;28;20191;-54
2023/04/07 07:17:22;;;;;;;3.13;2.63;;;;;;;28.81;32.31;94379.25;5037879;28;20198;-53
2023/04/07 07:19:49;;;;;;;4.78;2.97;;;;;;;29.12;32.50;94386.19;5038976;28;20183;-52
2023/04/07 07:22:16;;;;;;;3.03;2.72;;;;;;;29.18;32.37;94381.72;5039350;28;20206;-53
2023/04/07 07:24:43;;;;;;;2.53;2.35;;;;;;;29.06;32.37;94391.69;5043754;28;20194;-52
2023/04/07 07:27:11;;;;;;;3.90;2.63;;;;;;;29.15;32.16;94393.59;5036680;28;20191;-53
2023/04/07 07:29:37;;;;;;;3.58;2.97;;;;;;;29.17;31.70;94401.22;5034940;28;20199;-52
2023/04/07 07:32:04;;;;;;;3.35;2.70;;;;;;;28.97;31.95;94397.50;5039388;28;20618;-52
2023/04/07 07:34:31;;;;;;;3.83;3.03;;;;;;;28.71;32.29;94404.50;5045385;28;20183;-52
2023/04/07 07:36:59;;;;;;;3.50;3.17;;;;;;;28.39;32.37;94393.31;5035901;28;20564;-52
2023/04/07 07:39:26;;;;;;;3.55;3.15;;;;;;;28.04;32.10;94405.19;5033988;28;20222;-52
2023/04/07 07:41:54;;;;;;;6.65;3.17;;;;;;;27.70;32.07;94402.03;5036837;28;20271;-54
2023/04/07 07:44:22;;;;;;;3.00;2.72;;;;;;;27.36;32.01;94398.84;5041001;28;20195;-51
2023/04/07 07:46:49;;;;;;;3.45;3.15;;;;;;;27.07;32.17;94409.56;5033999;28;20274;-51
2023/04/07 07:49:16;;;;;;;3.00;2.80;;;;;;;26.80;31.67;94417.41;5039300;28;20220;-52
2023/04/07 07:51:44;;;;;;;5.75;2.95;;;;;;;26.55;31.94;94414.50;5037364;28;20267;-51
2023/04/07 07:54:11;;;;;;;4.35;3.30;;;;;;;26.36;31.48;94416.59;5039325;28;20215;-50
2023/04/07 07:56:38;;;;;;;5.68;3.38;;;;;;;26.16;31.71;94409.25;5038782;28;20184;-51
2023/04/07 07:59:06;;;;;;;3.08;2.88;;;;;;;25.97;31.50;94406.88;5031610;28;20179;-51
2023/04/07 08:01:34;;;;;;;3.90;3.10;;;;;;;25.75;31.73;94417.28;5035850;28;20317;-52
2023/04/07 08:04:01;;;;;;;3.50;3.13;;;;;;;25.48;31.29;94408.47;5037404;28;20196;-52
2023/04/07 08:06:30;;;;;;;4.35;3.40;;;;;;;25.21;31.31;94403.81;5040230;28;20211;-51
2023/04/07 08:08:57;;;;;;;3.50;2.75;;;;;;;24.96;31.43;94411.22;5038804;28;20219;-53
2023/04/07 08:11:24;;;;;;;5.00;3.70;;;;;;;24.77;31.42;94421.03;5037627;28;20210;-51
2023/04/07 08:13:52;;;;;;;4.57;3.55;;;;;;;24.65;31.44;94405.38;5036975;28;20289;-53
2023/04/07 08:16:19;;;;;;;5.20;3.42;;;;;;;24.62;31.10;94399.84;5040803;28;20179;-51
2023/04/07 08:18:48;;;;;;;4.82;3.47;;;;;;;24.80;31.48;94397.03;5036598;28;20234;-53
2023/04/07 08:21:14;;;;;;;4.28;2.90;;;;;;;25.17;31.70;94401.91;5039323;28;20195;-54
2023/04/07 08:23:41;;;;;;;6.07;3.05;;;;;;;25.24;31.79;94408.59;5044843;28;20179;-54
2023/04/07 08:26:08;;;;;;;3.10;2.80;;;;;;;25.06;31.68;94387.84;5041739;28;20195;-54
2023/04/07 08:28:35;;;;;;;3.47;3.17;;;;;;;25.05;31.71;94409.81;5038636;28;20202;-53
2023/04/07 08:31:02;;;;;;;3.70;3.35;;;;;;;24.90;31.13;94412.91;5036298;28;20191;-51
2023/04/07 08:33:28;;;;;;;4.35;3.30;;;;;;;24.72;31.17;94407.88;5037632;28;20690;-52
2023/04/07 08:35:57;;;;;;;3.83;3.38;;;;;;;24.44;31.25;94392.94;5037345;28;20214;-52
2023/04/07 08:38:23;;;;;;;5.03;3.00;;;;;;;24.39;31.18;94409.28;5038750;28;20204;-52
2023/04/07 08:40:58;;;;;;;5.00;3.33;;;;;;;24.21;31.12;94401.56;5037533;28;20191;-52
2023/04/07 08:43:28;;;;;;;3.88;3.45;;;;;;;24.14;31.25;94403.53;5036896;28;20567;-51
2023/04/07 08:45:57;;;;;;;3.50;3.15;;;;;;;24.25;30.66;94408.72;5033809;28;20213;-52
2023/04/07 08:48:26;;;;;;;5.32;3.15;;;;;;;24.27;31.16;94377.16;5040222;28;20617;-52
2023/04/07 08:50:53;;;;;;;3.53;3.00;;;;;;;24.47;30.71;94398.50;5042297;28;20198;-53
2023/04/07 08:53:28;;;;;;;3.55;3.25;;;;;;;24.33;30.68;94380.66;5042319;28;20225;-52
2023/04/07 08:55:56;;;;;;;3.53;3.22;;;;;;;24.27;30.68;94401.47;5040686;28;20644;-53
2023/04/07 08:58:23;;;;;;;3.25;2.90;;;;;;;24.19;30.50;94409.66;5044301;28;20640;-53
2023/04/07 09:00:50;;;;;;;3.28;2.97;;;;;;;24.23;30.70;94407.38;5041580;28;20195;-55
2023/04/07 09:03:18;;;;;;;3.85;3.22;;;;;;;24.35;30.61;94410.75;5041060;28;20183;-53
2023/04/07 09:05:46;;;;;;;3.72;3.13;;;;;;;24.40;30.58;94395.22;5042270;28;20202;-52
2023/04/07 09:08:13;;;;;;;6.43;3.33;;;;;;;24.53;30.45;94400.19;5041342;28;20210;-53
2023/04/07 09:10:41;;;;;;;3.60;3.30;;;;;;;24.58;30.24;94403.94;5040875;28;20195;-52
2023/04/07 09:13:08;;;;;;;3.13;2.78;;;;;;;24.49;30.75;94396.44;5042640;28;20231;-53
2023/04/07 09:15:35;;;;;;;3.22;3.00;;;;;;;24.47;30.01;94397.69;5043308;28;20195;-52
2023/04/07 09:18:02;;;;;;;3.72;3.35;;;;;;;24.32;30.02;94395.56;5042875;28;20195;-53
2023/04/07 09:20:58;;;;;;;3.58;3.20;;;;;;;24.35;29.79;94405.53;5045506;28;20191;-52
2023/04/07 09:23:32;;;;;;;3.90;3.45;;;;;;;24.28;29.98;94408.28;5042802;28;20202;-55
2023/04/07 09:26:18;;;;;;;3.72;3.10;;;;;;;24.19;29.78;94407.03;5041915;28;20587;-54
2023/04/07 09:28:46;;;;;;;3.72;3.45;;;;;;;24.08;29.93;94407.03;5042791;28;20202;-52
2023/04/07 09:31:14;;;;;;;3.92;3.50;;;;;;;23.96;30.06;94409.66;5037237;28;20230;-52
2023/04/07 09:33:41;;;;;;;3.83;3.47;;;;;;;23.86;29.79;94407.63;5041665;28;20233;-51
2023/04/07 09:36:07;;;;;;;4.07;3.65;;;;;;;23.76;29.91;94418.63;5046132;28;20195;-52
2023/04/07 09:38:35;;;;;;;4.20;3.35;;;;;;;23.66;29.77;94428.03;5040043;28;20583;-51
2023/04/07 09:41:11;;;;;;;4.05;3.67;;;;;;;23.54;29.85;94413.13;5036441;28;20180;-53
2023/04/07 09:43:40;;;;;;;3.55;3.25;;;;;;;23.43;30.04;94420.94;5042175;28;20198;-53
2023/04/07 09:46:14;;;;;;;4.40;4.00;;;;;;;23.20;29.95;94408.63;5043006;28;20221;-54
2023/04/07 09:48:42;;;;;;;3.97;3.53;;;;;;;23.08;30.15;94420.81;5045029;28;20191;-51
2023/04/07 09:51:11;;;;;;;3.50;3.20;;;;;;;22.90;30.18;94425.06;5043742;28;20245;-52
2023/04/07 09:53:46;;;;;;;4.15;3.53;;;;;;;22.76;30.28;94418.41;5037414;28;20211;-53
2023/04/07 09:56:16;;;;;;;4.47;3.38;;;;;;;22.76;30.34;94427.03;5042532;28;20233;-53
2023/04/07 09:58:45;;;;;;;3.85;3.47;;;;;;;22.70;30.23;94407.03;5042837;28;20275;-51
2023/04/07 10:01:12;;;;;;;4.05;3.63;;;;;;;22.89;30.09;94423.47;5039003;28;20190;-52
2023/04/07 10:03:40;;;;;;;4.55;4.15;;;;;;;22.97;30.00;94417.16;5042742;28;20577;-55
2023/04/07 10:06:07;;;;;;;4.07;3.42;;;;;;;22.84;29.91;94381.59;5043807;28;20191;-52
2023/04/07 10:08:36;;;;;;;4.25;3.45;;;;;;;22.87;29.81;94396.00;5034680;28;20238;-52
2023/04/07 10:11:04;;;;;;;3.92;3.55;;;;;;;23.01;29.80;94418.28;5040060;28;20222;-53
2023/04/07 10:13:34;;;;;;;4.00;3.63;;;;;;;22.97;30.12;94422.34;5038869;28;20218;-52
2023/04/07 10:16:03;;;;;;;5.35;3.70;;;;;;;22.86;29.79;94417.88;5039560;28;20246;-51
2023/04/07 10:18:32;;;;;;;4.93;3.67;;;;;;;22.69;29.97;94409.88;5041347;28;20183;-50
2023/04/07 10:21:01;;;;;;;3.85;3.47;;;;;;;22.58;30.15;94416.59;5044735;28;20229;-51
2023/04/07 10:23:39;;;;;;;4.82;3.53;;;;;;;22.41;30.07;94424.22;5036565;28;20232;-52
2023/04/07 10:26:07;;;;;;;5.38;3.42;;;;;;;22.25;30.28;94417.78;5038567;28;20677;-55
2023/04/07 10:28:44;;;;;;;4.47;3.45;;;;;;;21.74;30.35;94363.34;5032040;28;20195;-54
2023/04/07 10:31:12;;;;;;;5.18;3.97;;;;;;;22.02;30.47;94423.59;5039057;28;20199;-53
2023/04/07 10:33:47;;;;;;;4.03;3.72;;;;;;;21.90;30.47;94417.50;5034329;28;20232;-53
2023/04/07 10:36:15;;;;;;;4.07;3.67;;;;;;;21.85;30.67;94427.75;5040577;28;20198;-52
2023/04/07 10:38:42;;;;;;;4.15;3.75;;;;;;;21.76;30.69;94426.41;5043123;28;20191;-53
2023/04/07 10:41:36;;;;;;;4.10;3.65;;;;;;;21.67;30.42;94435.50;5043095;28;20210;-52
2023/04/07 10:44:05;;;;;;;4.10;3.70;;;;;;;21.58;30.60;94441.97;5036814;28;20272;-51
2023/04/07 10:47:04;;;;;;;7.63;3.95;;;;;;;21.44;30.79;94436.88;5042707;28;20683;-52
2023/04/07 10:49:32;;;;;;;4.43;3.90;;;;;;;21.41;30.79;94429.47;5038920;28;20200;-53
2023/04/07 10:52:24;;;;;;;5.17;4.13;;;;;;;21.35;30.84;94432.94;5038193;28;20207;-53
2023/04/07 10:55:24;;;;;;;4.72;4.30;;;;;;;21.29;31.00;94436.34;5038489;28;20714;-52
2023/04/07 10:58:21;;;;;;;4.43;4.03;;;;;;;21.20;30.90;94434.97;5038534;28;20615;-52
2023/04/07 11:01:19;;;;;;;4.35;3.95;;;;;;;21.12;30.90;94440.47;5042974;28;20279;-54
2023/04/07 11:03:58;;;;;;;4.67;4.17;;;;;;;21.01;30.98;94434.91;5040723;28;20191;-51
2023/04/07 11:06:25;;;;;;;4.70;3.90;;;;;;;20.94;31.03;94439.34;5043619;28;20199;-51
2023/04/07 11:08:52;;;;;;;5.27;4.03;;;;;;;20.88;31.05;94442.75;5037770;28;20239;-51
2023/04/07 11:11:37;;;;;;;5.03;4.53;;;;;;;20.88;31.01;94440.16;5040080;28;20194;-52
2023/04/07 11:14:04;;;;;;;4.85;4.35;;;;;;;20.86;31.15;94444.00;5036531;28;20729;-52
2023/04/07 11:16:44;;;;;;;6.10;5.07;;;;;;;20.81;31.21;94444.59;5043553;28;20663;-52
2023/04/07 11:19:11;;;;;;;4.57;4.17;;;;;;;20.69;31.09;94431.47;5038519;28;20270;-51
2023/04/07 11:21:39;;;;;;;5.00;4.60;;;;;;;20.65;31.31;94442.47;5040477;28;20187;-53
2023/04/07 11:24:06;;;;;;;5.10;4.50;;;;;;;20.60;31.38;94440.50;5040547;28;20242;-50
2023/04/07 11:26:40;;;;;;;5.00;4.07;;;;;;;20.34;31.41;94407.56;5039467;28;20183;-52
2023/04/07 11:29:07;;;;;;;4.90;4.40;;;;;;;20.52;31.44;94438.91;5038801;28;20650;-52
2023/04/07 11:31:34;;;;;;;6.10;4.10;;;;;;;20.47;31.58;94443.09;5040504;28;20252;-52
2023/04/07 11:34:04;;;;;;;4.80;3.70;;;;;;;20.47;31.65;94440.50;5043374;28;20702;-53
2023/04/07 11:36:32;;;;;;;6.17;4.20;;;;;;;20.39;31.33;94444.13;5040569;28;20201;-53
2023/04/07 11:39:00;;;;;;;4.80;4.30;;;;;;;20.42;31.61;94458.47;5040133;28;20756;-52
2023/04/07 11:41:29;;;;;;;5.23;4.20;;;;;;;20.36;31.64;94447.13;5035395;28;20203;-54
2023/04/07 11:44:10;;;;;;;5.27;4.30;;;;;;;20.28;31.62;94455.13;5035098;28;20637;-52